Time;durP1;ratioP1;P1;durP2;ratioP2;P2;SDS_P1;SDS_P2;PMS_P1;PMS_P2;Temp;Humidity;BMP_temperature;BMP_pressure;BME280_temperature;BME280_humidity;BME280_pressure;Samples;Min_cycle;Max_cycle;Signal;HPM_P1;HPM_P2
2022/05/13 04:22:37;;;;;;;13.27;8.30;;;;;;;17.09;95.02;100548.06;5111914;27;20112;-78
2022/05/13 04:25:03;;;;;;;9.55;6.80;;;;;;;17.12;95.48;100552.19;5111687;28;20073;-78
2022/05/13 04:27:29;;;;;;;11.82;6.70;;;;;;;17.13;95.02;100553.00;5112529;28;20036;-79
2022/05/13 04:29:55;;;;;;;8.25;5.82;;;;;;;17.15;94.92;100545.53;5113739;28;20089;-78
2022/05/13 04:32:20;;;;;;;10.25;5.70;;;;;;;17.14;95.16;100560.03;5112012;28;20446;-79
2022/05/13 04:34:46;;;;;;;12.73;6.57;;;;;;;17.11;94.26;100552.41;5110615;28;20123;-79
2022/05/13 04:37:11;;;;;;;13.35;6.82;;;;;;;17.12;93.63;100562.13;5111250;28;20106;-79
2022/05/13 04:39:37;;;;;;;10.15;6.18;;;;;;;17.10;93.83;100554.28;5110641;28;20065;-78
2022/05/13 04:44:47;;;;;;;11.57;5.90;;;;;;;17.14;92.79;100560.03;5111481;28;20040;-79
2022/05/13 04:49:56;;;;;;;10.02;5.35;;;;;;;17.18;92.29;100569.38;5110950;28;20063;-79
2022/05/13 04:52:22;;;;;;;12.27;6.47;;;;;;;17.16;92.13;100568.75;5110835;28;20461;-78
2022/05/13 04:54:47;;;;;;;10.32;5.68;;;;;;;17.15;92.50;100578.69;5108417;28;20403;-78
2022/05/13 04:57:13;;;;;;;13.38;6.15;;;;;;;17.14;93.10;100581.56;5111067;28;20092;-77
2022/05/13 04:59:39;;;;;;;9.10;6.13;;;;;;;17.08;93.16;100585.94;5111214;28;20044;-78
2022/05/13 05:02:04;;;;;;;10.55;5.88;;;;;;;17.14;92.58;100589.66;5110616;28;20457;-79
2022/05/13 05:04:30;;;;;;;8.90;5.85;;;;;;;17.15;91.95;100584.09;5110770;28;20051;-78
2022/05/13 05:06:55;;;;;;;11.38;5.40;;;;;;;17.15;91.76;100578.69;5111313;28;20043;-78
2022/05/13 05:09:20;;;;;;;8.82;5.40;;;;;;;17.15;91.81;100577.84;5110576;28;20036;-79
2022/05/13 05:11:46;;;;;;;9.85;5.25;;;;;;;17.18;91.02;100578.28;5110671;28;20322;-78
2022/05/13 05:14:11;;;;;;;9.30;5.30;;;;;;;17.14;91.31;100582.41;5111636;28;20452;-79
2022/05/13 05:16:37;;;;;;;9.50;5.05;;;;;;;17.12;91.15;100578.28;5110660;28;20046;-77
2022/05/13 05:19:03;;;;;;;14.10;5.35;;;;;;;17.13;90.78;100585.31;5107305;28;20507;-77
2022/05/13 05:21:28;;;;;;;8.63;4.95;;;;;;;17.17;90.53;100583.88;5108016;28;20126;-78
2022/05/13 05:23:55;;;;;;;7.38;4.82;;;;;;;17.11;91.09;100587.38;5106958;28;20502;-78
2022/05/13 05:26:21;;;;;;;7.90;4.57;;;;;;;17.17;89.99;100594.63;5108143;28;20126;-76
2022/05/13 05:28:47;;;;;;;8.50;4.38;;;;;;;17.15;90.74;100602.06;5108357;28;20075;-77
2022/05/13 05:31:13;;;;;;;7.85;4.20;;;;;;;17.15;90.08;100602.94;5106823;28;20058;-77
2022/05/13 05:33:39;;;;;;;8.23;4.35;;;;;;;17.17;90.09;100598.16;5095862;28;20032;-76
2022/05/13 05:36:05;;;;;;;9.30;4.65;;;;;;;17.16;89.64;100596.50;5093411;28;20127;-77
2022/05/13 05:38:31;;;;;;;9.38;4.57;;;;;;;17.15;89.05;100591.31;5076411;28;20036;-77
2022/05/13 05:40:59;;;;;;;7.65;4.78;;;;;;;17.20;89.18;100600.41;5093408;28;20039;-77
2022/05/13 05:43:24;;;;;;;;;;;;;;;17.23;88.70;100601.88;5094564;28;20051;-77
2022/05/13 05:45:50;;;;;;;6.88;4.50;;;;;;;17.23;88.65;100602.72;5095064;28;19918;-78
2022/05/13 05:48:22;;;;;;;9.32;4.85;;;;;;;17.23;88.78;100601.88;5096184;28;20043;-79
2022/05/13 05:50:52;;;;;;;8.57;4.88;;;;;;;17.21;89.25;100604.75;5096924;28;20040;-79
2022/05/13 05:58:46;;;;;;;7.07;4.65;;;;;;;17.20;89.00;100607.66;5094710;28;20427;-78
2022/05/13 06:01:12;;;;;;;8.27;4.82;;;;;;;17.26;89.78;100614.91;5095585;28;20115;-78
2022/05/13 06:03:38;;;;;;;12.38;5.05;;;;;;;17.28;89.45;100602.09;5095110;28;20059;-78
2022/05/13 06:06:05;;;;;;;11.63;5.25;;;;;;;17.31;89.69;100615.13;5094924;28;20067;-78
2022/05/13 06:08:31;;;;;;;9.43;5.40;;;;;;;17.38;88.99;100615.94;5094739;28;20040;-78
2022/05/13 06:10:56;;;;;;;9.13;5.25;;;;;;;17.38;89.88;100626.72;5095607;28;20039;-78
2022/05/13 06:13:22;;;;;;;13.98;5.53;;;;;;;17.44;89.07;100623.19;5095428;28;20043;-78
2022/05/13 06:15:47;;;;;;;12.02;5.10;;;;;;;17.43;89.44;100629.63;5095883;28;20505;-78
2022/05/13 06:18:13;;;;;;;8.52;5.53;;;;;;;17.49;89.16;100626.09;5095554;28;20028;-78
2022/05/13 06:20:38;;;;;;;9.00;4.90;;;;;;;17.51;89.09;100628.56;5096883;28;20051;-78
2022/05/13 06:23:04;;;;;;;10.73;5.47;;;;;;;17.56;89.24;100626.91;5095421;28;20043;-78
2022/05/13 06:25:29;;;;;;;13.73;4.63;;;;;;;17.61;88.70;100634.38;5095190;28;20040;-78
2022/05/13 06:27:55;;;;;;;10.77;5.25;;;;;;;17.60;89.02;100636.22;5093932;28;20040;-75
2022/05/13 06:30:33;;;;;;;12.05;5.28;;;;;;;17.47;88.30;100649.69;5093352;28;20107;-76
2022/05/13 06:33:00;;;;;;;7.85;5.03;;;;;;;17.45;88.56;100649.06;5093067;28;20047;-76
2022/05/13 06:35:27;;;;;;;10.75;4.85;;;;;;;17.53;88.74;100645.34;5093339;28;20035;-75
2022/05/13 06:37:52;;;;;;;9.45;5.63;;;;;;;17.56;88.79;100658.41;5093312;28;20040;-75
2022/05/13 06:40:18;;;;;;;11.57;6.30;;;;;;;17.58;89.03;100659.00;5075080;28;20105;-74
2022/05/13 06:42:45;;;;;;;7.97;5.13;;;;;;;17.64;88.66;100655.47;5092985;28;20040;-74
2022/05/13 06:45:11;;;;;;;6.85;5.05;;;;;;;17.59;89.93;100655.28;5073946;28;20073;-76
2022/05/13 06:47:37;;;;;;;10.52;4.68;;;;;;;17.61;87.75;100659.44;5091697;28;20044;-76
2022/05/13 06:50:05;;;;;;;10.88;4.68;;;;;;;17.51;87.06;100666.28;5093040;28;20024;-75
2022/05/13 06:52:30;;;;;;;10.20;4.32;;;;;;;17.56;86.71;100672.69;5092800;28;20094;-77
2022/05/13 06:54:56;;;;;;;18.90;5.45;;;;;;;17.53;85.63;100670.41;5092443;28;20071;-77
2022/05/13 06:57:22;;;;;;;11.05;4.78;;;;;;;17.47;86.42;100673.09;5093817;28;20070;-77
2022/05/13 06:59:47;;;;;;;8.82;5.00;;;;;;;17.48;85.63;100664.84;5094310;28;20115;-77
2022/05/13 07:02:17;;;;;;;8.88;4.45;;;;;;;17.56;85.29;100669.16;5093331;28;20043;-77
2022/05/13 07:04:44;;;;;;;8.32;4.63;;;;;;;17.60;84.27;100679.31;5093605;28;20509;-75
2022/05/13 07:07:10;;;;;;;7.28;4.25;;;;;;;17.63;84.23;100688.84;5092711;28;20043;-75
2022/05/13 07:09:36;;;;;;;10.80;4.40;;;;;;;17.66;84.39;100690.28;5092658;28;20062;-76
2022/05/13 07:12:02;;;;;;;10.32;4.68;;;;;;;17.71;84.58;100682.41;5092338;28;20485;-76
2022/05/13 07:14:28;;;;;;;10.75;4.20;;;;;;;17.73;84.18;100691.97;5092593;28;20047;-74
2022/05/13 07:16:55;;;;;;;7.53;4.30;;;;;;;17.75;83.35;100686.38;5092499;28;20389;-74
2022/05/13 07:19:20;;;;;;;11.43;5.60;;;;;;;17.78;84.11;100685.94;5092509;28;20035;-74
2022/05/13 07:21:46;;;;;;;9.73;4.53;;;;;;;17.78;85.69;100686.78;5090795;28;20043;-74
2022/05/13 07:24:12;;;;;;;8.95;4.05;;;;;;;17.84;82.50;100699.41;5091115;28;20036;-73
2022/05/13 07:26:38;;;;;;;8.40;4.10;;;;;;;17.83;81.37;100692.38;5092402;28;20040;-74
2022/05/13 07:29:05;;;;;;;10.07;4.10;;;;;;;17.87;81.57;100696.31;5092204;28;20441;-74
2022/05/13 07:31:31;;;;;;;8.27;4.05;;;;;;;17.87;79.69;100700.88;5092059;28;20187;-74
2022/05/13 07:33:57;;;;;;;6.63;4.35;;;;;;;17.90;80.09;100697.75;5092159;28;20039;-74
2022/05/13 07:36:22;;;;;;;9.73;4.40;;;;;;;17.98;79.79;100702.91;5092161;28;20059;-74
2022/05/13 07:41:32;;;;;;;7.93;4.05;;;;;;;18.06;80.66;100704.53;5091767;28;20043;-74
2022/05/13 07:43:58;;;;;;;9.45;4.30;;;;;;;18.08;80.18;100705.19;5091778;28;20023;-74
2022/05/13 07:46:23;;;;;;;9.05;4.28;;;;;;;18.14;81.01;100710.56;5091767;28;20115;-74
2022/05/13 07:48:51;;;;;;;9.57;4.03;;;;;;;18.16;80.32;100711.16;5091944;28;20499;-74
2022/05/13 07:51:17;;;;;;;7.15;4.45;;;;;;;18.13;80.20;100705.38;5090947;28;20392;-77
2022/05/13 07:53:43;;;;;;;8.88;4.65;;;;;;;18.22;78.92;100705.97;5091701;28;20024;-76
2022/05/13 07:56:09;;;;;;;8.55;4.20;;;;;;;18.20;80.48;100706.19;5091762;28;20035;-76
2022/05/13 07:58:34;;;;;;;9.27;4.38;;;;;;;18.22;78.54;100712.19;5090975;28;20537;-77
2022/05/13 08:01:00;;;;;;;10.85;3.88;;;;;;;18.29;78.63;100720.25;5091710;28;20396;-76
2022/05/13 08:03:26;;;;;;;7.68;3.58;;;;;;;18.38;77.29;100711.69;5091680;28;20047;-77
2022/05/13 08:05:57;;;;;;;6.95;3.72;;;;;;;18.35;75.06;100708.63;5090626;28;20036;-75
2022/05/13 08:08:30;;;;;;;7.47;4.63;;;;;;;18.44;73.31;100718.13;5093330;28;20382;-76
2022/05/13 08:10:59;;;;;;;10.50;3.58;;;;;;;18.49;73.95;100720.19;5094532;28;20083;-77
2022/05/13 08:13:26;;;;;;;7.57;3.78;;;;;;;18.50;71.84;100727.22;5094176;28;20544;-76
2022/05/13 08:15:52;;;;;;;9.20;3.70;;;;;;;18.54;71.08;100723.06;5091729;28;20024;-76
2022/05/13 08:18:20;;;;;;;9.27;3.60;;;;;;;18.40;70.32;100725.00;5091760;28;20174;-75
2022/05/13 08:20:46;;;;;;;;;;;;;;;18.49;68.79;100720.19;5092732;28;20051;-77
2022/05/13 08:23:12;;;;;;;12.85;4.03;;;;;;;18.54;67.58;100723.91;5091683;28;19915;-75
2022/05/13 08:25:38;;;;;;;6.28;2.67;;;;;;;18.56;67.04;100721.81;5090052;28;20054;-75
2022/05/13 08:28:08;;;;;;;9.48;3.35;;;;;;;18.65;66.61;100717.84;5092128;28;20044;-76
2022/05/13 08:30:35;;;;;;;6.00;3.55;;;;;;;18.72;68.03;100714.31;5093818;28;20032;-75
2022/05/13 08:33:08;;;;;;;8.82;3.65;;;;;;;18.93;67.87;100711.28;5091213;28;20123;-77
2022/05/13 08:35:40;;;;;;;9.52;3.30;;;;;;;19.01;64.61;100711.03;5091758;28;20402;-75
2022/05/13 08:38:06;;;;;;;7.35;3.03;;;;;;;19.08;63.45;100719.91;5091466;28;20473;-76
2022/05/13 08:40:52;;;;;;;8.05;3.03;;;;;;;19.30;64.29;100715.00;5091315;28;20085;-75
2022/05/13 08:43:44;;;;;;;11.23;3.20;;;;;;;19.33;65.36;100709.13;5091013;28;20118;-76
2022/05/13 08:46:16;;;;;;;9.05;3.15;;;;;;;19.33;63.12;100711.84;5091244;28;20039;-75
2022/05/13 08:48:44;;;;;;;7.38;2.88;;;;;;;19.27;61.08;100725.38;5090123;28;20105;-75
2022/05/13 08:51:23;;;;;;;8.32;2.67;;;;;;;19.30;61.79;100706.88;5094420;28;20036;-77
2022/05/13 08:53:48;;;;;;;5.55;2.70;;;;;;;19.25;60.76;100709.41;5094515;28;20036;-78
2022/05/13 08:56:21;;;;;;;7.05;3.03;;;;;;;19.34;60.41;100713.50;5091483;28;20426;-74
2022/05/13 08:59:01;;;;;;;5.78;2.78;;;;;;;19.44;61.66;100721.94;5091335;28;20043;-74
2022/05/13 09:01:37;;;;;;;5.80;2.72;;;;;;;19.53;62.55;100722.47;5089877;28;20040;-74
2022/05/13 09:04:09;;;;;;;9.35;3.47;;;;;;;19.60;62.55;100722.47;5091009;28;20063;-75
2022/05/13 09:06:46;;;;;;;6.43;2.97;;;;;;;19.62;63.27;100718.47;5089897;28;20042;-74
2022/05/13 09:09:12;;;;;;;9.77;3.47;;;;;;;19.48;60.88;100725.00;5094549;28;20031;-76
2022/05/13 09:12:04;;;;;;;5.85;2.90;;;;;;;19.55;61.40;100719.56;5093488;28;20393;-75
2022/05/13 09:14:50;;;;;;;9.07;3.25;;;;;;;19.70;62.19;100718.22;5094937;28;20035;-76
2022/05/13 09:17:28;;;;;;;6.72;3.15;;;;;;;19.93;61.81;100720.28;5097093;28;20110;-77
2022/05/13 09:19:53;;;;;;;4.22;2.90;;;;;;;19.85;65.08;100719.75;5099942;28;20546;-77
2022/05/13 09:22:19;;;;;;;7.75;2.95;;;;;;;19.88;61.79;100712.00;5094426;28;20044;-75
2022/05/13 09:24:45;;;;;;;5.30;2.80;;;;;;;20.07;61.58;100718.25;5094830;28;20040;-76
2022/05/13 09:27:12;;;;;;;7.15;2.72;;;;;;;20.13;60.73;100721.94;5095731;28;20070;-76
2022/05/13 09:29:40;;;;;;;10.98;3.63;;;;;;;20.59;59.85;100724.97;5094787;28;20028;-75
2022/05/13 09:32:12;;;;;;;7.25;3.00;;;;;;;20.87;57.23;100710.06;5094303;28;20664;-74
2022/05/13 09:35:00;;;;;;;10.23;2.60;;;;;;;21.26;56.31;100711.34;5095190;28;20393;-77
2022/05/13 09:37:34;;;;;;;5.20;2.60;;;;;;;21.97;57.53;100712.22;5093783;28;20043;-76
2022/05/13 09:40:18;;;;;;;5.25;2.88;;;;;;;21.95;51.89;100709.75;5095595;28;20036;-76
2022/05/13 09:42:51;;;;;;;6.20;2.55;;;;;;;22.15;52.21;100705.88;5097039;28;20040;-75
2022/05/13 09:45:30;;;;;;;7.43;2.80;;;;;;;21.96;52.45;100702.44;5095062;28;20032;-75
2022/05/13 09:48:15;;;;;;;7.38;2.95;;;;;;;22.25;52.80;100700.69;5096676;28;20035;-78
2022/05/13 09:50:45;;;;;;;5.03;2.00;;;;;;;22.36;51.71;100707.13;5096014;28;20020;-77
2022/05/13 09:53:22;;;;;;;8.77;3.72;;;;;;;22.09;50.84;100704.13;5095715;28;20097;-76
2022/05/13 09:55:50;;;;;;;5.93;2.20;;;;;;;22.27;47.13;100700.44;5095613;28;20032;-77
2022/05/13 09:58:27;;;;;;;6.07;2.50;;;;;;;22.71;46.21;100698.88;5095971;28;20100;-77
2022/05/13 10:00:58;;;;;;;4.38;2.22;;;;;;;22.74;44.09;100695.66;5094953;28;20043;-77
2022/05/13 10:03:29;;;;;;;4.25;2.10;;;;;;;22.94;44.96;100690.66;5094833;28;20058;-77
2022/05/13 10:06:15;;;;;;;4.38;2.35;;;;;;;22.88;44.40;100686.19;5094912;28;20040;-76
2022/05/13 10:08:52;;;;;;;6.60;2.55;;;;;;;23.41;44.54;100684.09;5094590;28;20028;-76
2022/05/13 10:14:33;;;;;;;8.20;2.47;;;;;;;23.06;42.22;100681.63;5095294;28;20117;-77
2022/05/13 10:17:05;;;;;;;5.90;1.98;;;;;;;23.23;42.39;100690.63;5094789;28;20063;-77
2022/05/13 10:19:42;;;;;;;11.95;4.35;;;;;;;23.67;42.78;100690.78;5095111;28;20488;-76
2022/05/13 10:22:24;;;;;;;8.20;2.88;;;;;;;24.11;41.69;100683.53;5094268;28;20055;-78
2022/05/13 10:25:14;;;;;;;7.90;4.53;;;;;;;23.76;40.08;100679.25;5094592;28;20036;-76
2022/05/13 10:28:12;;;;;;;4.20;1.60;;;;;;;24.11;40.10;100675.38;5095474;28;20036;-77
2022/05/13 10:30:47;;;;;;;16.35;5.35;;;;;;;24.70;38.58;100675.53;5089849;28;20389;-77
2022/05/13 10:33:28;;;;;;;5.85;2.08;;;;;;;25.12;39.88;100673.00;5096023;28;20077;-76
2022/05/13 10:36:09;;;;;;;2.72;1.77;;;;;;;25.95;36.37;100677.97;5093293;28;20024;-76
2022/05/13 10:39:10;;;;;;;3.17;1.60;;;;;;;26.23;37.68;100688.50;5093706;28;20039;-76
2022/05/13 10:41:47;;;;;;;5.88;1.98;;;;;;;26.34;36.73;100672.97;5072397;28;20071;-78
2022/05/13 10:44:46;;;;;;;3.17;1.35;;;;;;;25.99;36.43;100681.81;5096287;28;20036;-75
2022/05/13 10:47:40;;;;;;;3.70;1.50;;;;;;;26.10;36.38;100680.78;5094621;28;20170;-78
2022/05/13 10:50:16;;;;;;;4.85;1.88;;;;;;;25.93;37.45;100671.97;5079323;28;20040;-77
2022/05/13 10:53:03;;;;;;;4.73;1.50;;;;;;;26.47;36.14;100671.66;5093427;28;20111;-76
2022/05/13 10:56:06;;;;;;;3.47;1.70;;;;;;;26.58;34.23;100673.34;5093096;28;20048;-75
2022/05/13 10:58:58;;;;;;;5.07;1.80;;;;;;;27.14;36.10;100667.19;5092904;28;20427;-76
2022/05/13 11:01:45;;;;;;;7.60;2.20;;;;;;;27.25;35.25;100677.84;5093482;28;20066;-77
2022/05/13 11:04:45;;;;;;;4.38;1.85;;;;;;;27.28;32.45;100666.34;5095631;28;20028;-76
2022/05/13 11:07:29;;;;;;;3.10;1.40;;;;;;;27.58;33.73;100675.63;5075482;28;20077;-77
2022/05/13 11:10:08;;;;;;;3.53;1.40;;;;;;;28.07;32.01;100673.06;5093409;28;20035;-76
2022/05/13 11:12:54;;;;;;;3.85;1.30;;;;;;;28.61;31.17;100669.56;5092652;28;20065;-77
2022/05/13 11:15:49;;;;;;;5.85;1.40;;;;;;;27.56;32.72;100667.69;5092148;28;20036;-77
2022/05/13 11:18:45;;;;;;;4.55;1.17;;;;;;;27.12;31.02;100669.34;5094342;28;20032;-76
2022/05/13 11:21:37;;;;;;;4.88;1.70;;;;;;;27.22;29.57;100672.09;5076251;28;20572;-77
2022/05/13 11:27:21;;;;;;;4.43;1.55;;;;;;;27.60;32.16;100662.50;5092453;28;20040;-77
2022/05/13 11:29:53;;;;;;;2.67;1.23;;;;;;;28.51;29.84;100657.84;5092173;28;20434;-77
2022/05/13 11:33:02;;;;;;;2.83;1.20;;;;;;;28.46;31.25;100664.19;5091937;28;20028;-75
2022/05/13 11:35:39;;;;;;;3.53;1.40;;;;;;;28.37;29.64;100655.75;5081913;28;20138;-77
2022/05/13 11:38:33;;;;;;;4.97;1.70;;;;;;;28.28;29.89;100645.59;5095671;28;20123;-77
2022/05/13 11:41:04;;;;;;;2.10;1.30;;;;;;;28.02;29.39;100658.59;5092123;28;20081;-75
2022/05/13 11:43:58;;;;;;;3.67;1.35;;;;;;;27.84;31.94;100663.59;5092443;28;20089;-77
2022/05/13 11:46:52;;;;;;;4.35;1.23;;;;;;;28.45;31.28;100661.72;5090294;28;20054;-77
2022/05/13 11:49:24;;;;;;;4.70;1.50;;;;;;;28.67;31.03;100671.16;5092453;28;20094;-77
2022/05/13 11:51:50;;;;;;;4.13;1.58;;;;;;;28.27;30.19;100654.94;5093690;28;20087;-76
2022/05/13 11:54:18;;;;;;;3.35;1.92;;;;;;;28.66;29.84;100664.06;5092322;28;20090;-76
2022/05/13 11:56:46;;;;;;;3.50;1.40;;;;;;;28.01;28.99;100662.41;5091525;28;20032;-76
2022/05/13 11:59:41;;;;;;;2.88;1.60;;;;;;;27.30;30.09;100655.97;5093090;28;20480;-77
2022/05/13 12:02:15;;;;;;;4.53;1.85;;;;;;;28.14;30.66;100653.59;5089352;28;20052;-77
2022/05/13 12:05:08;;;;;;;4.57;1.73;;;;;;;28.31;30.62;100659.59;5094103;28;20516;-77
2022/05/13 12:08:07;;;;;;;6.22;1.60;;;;;;;28.99;29.41;100649.88;5091887;28;20024;-78
2022/05/13 12:10:51;;;;;;;3.28;1.63;;;;;;;28.59;30.14;100646.28;5092951;28;20476;-77
2022/05/13 12:13:35;;;;;;;4.30;1.50;;;;;;;27.74;28.35;100649.91;5091927;28;20047;-76
2022/05/13 12:16:10;;;;;;;6.07;1.50;;;;;;;27.78;30.29;100651.00;5092517;28;20024;-75
2022/05/13 12:19:17;;;;;;;2.50;1.30;;;;;;;28.31;29.94;100643.16;5091592;28;20036;-74
2022/05/13 12:22:05;;;;;;;2.65;1.02;;;;;;;27.73;28.92;100648.28;5085423;28;20580;-74
2022/05/13 12:24:53;;;;;;;2.65;1.50;;;;;;;28.40;30.10;100657.09;5091903;28;20039;-74
2022/05/13 12:27:30;;;;;;;4.03;1.50;;;;;;;29.35;28.05;100642.19;5091560;28;20481;-76
2022/05/13 12:30:04;;;;;;;3.90;1.67;;;;;;;29.11;27.61;100629.22;5092351;28;20055;-76
2022/05/13 12:32:37;;;;;;;2.72;1.35;;;;;;;28.86;26.91;100634.88;5091686;28;20036;-75
2022/05/13 12:37:55;;;;;;;2.33;1.02;;;;;;;28.33;26.70;100638.22;5091296;28;20036;-75
2022/05/13 12:40:23;;;;;;;3.50;1.20;;;;;;;28.24;28.71;100645.38;5091424;28;20046;-75
2022/05/13 12:42:52;;;;;;;3.05;1.13;;;;;;;29.59;27.34;100629.31;5092338;28;20078;-74
2022/05/13 12:45:21;;;;;;;3.28;1.38;;;;;;;30.23;26.83;100629.97;5095325;28;20040;-75
2022/05/13 12:48:04;;;;;;;8.00;2.00;;;;;;;29.99;26.41;100629.97;5095312;28;20111;-75
2022/05/13 12:51:11;;;;;;;5.03;1.42;;;;;;;28.76;26.95;100635.78;5093916;28;20119;-76
2022/05/13 12:53:50;;;;;;;4.57;1.40;;;;;;;29.29;27.11;100632.38;5095187;28;20032;-76
2022/05/13 12:56:20;;;;;;;4.20;1.23;;;;;;;29.14;25.44;100636.03;5093874;28;20126;-75
2022/05/13 12:58:53;;;;;;;4.93;1.17;;;;;;;28.87;26.66;100625.53;5095541;28;20023;-77
2022/05/13 13:01:19;;;;;;;3.85;1.17;;;;;;;28.85;26.75;100625.00;5095360;28;20408;-77
2022/05/13 13:03:48;;;;;;;2.65;1.38;;;;;;;29.43;26.65;100631.38;5095645;28;20024;-77
2022/05/13 13:06:19;;;;;;;5.30;1.40;;;;;;;29.89;25.77;100622.69;5095101;28;20036;-77
2022/05/13 13:08:49;;;;;;;3.47;1.30;;;;;;;29.69;27.39;100625.66;5095146;28;20036;-76
2022/05/13 13:11:28;;;;;;;4.70;1.45;;;;;;;29.90;25.86;100620.75;5094969;28;20372;-76
2022/05/13 13:14:13;;;;;;;5.70;1.30;;;;;;;29.45;26.43;100614.63;5095058;28;20434;-78
2022/05/13 13:17:09;;;;;;;2.40;1.13;;;;;;;29.93;26.93;100614.66;5094300;28;20396;-77
2022/05/13 13:19:36;;;;;;;5.78;1.83;;;;;;;29.69;25.38;100615.50;5096084;28;20093;-78
2022/05/13 13:22:10;;;;;;;3.00;1.45;;;;;;;28.49;26.77;100611.53;5096237;28;20549;-76
2022/05/13 13:24:38;;;;;;;3.65;1.55;;;;;;;27.45;27.84;100622.31;5095619;28;20028;-76
2022/05/13 13:27:13;;;;;;;4.10;1.80;;;;;;;27.04;27.34;100607.81;5096010;28;20051;-77
2022/05/13 13:29:42;;;;;;;4.10;1.50;;;;;;;26.21;30.74;100619.69;5094846;28;20574;-76
2022/05/13 13:32:13;;;;;;;4.70;1.20;;;;;;;26.13;31.78;100617.47;5093473;28;20033;-78
2022/05/13 13:34:52;;;;;;;4.07;1.80;;;;;;;25.75;31.19;100615.09;5095214;28;20044;-77
2022/05/13 13:37:22;;;;;;;5.15;1.60;;;;;;;25.74;33.46;100613.47;5095151;28;20044;-76
2022/05/13 13:39:48;;;;;;;4.80;1.42;;;;;;;25.55;32.77;100602.97;5095651;28;20032;-77
2022/05/13 13:42:15;;;;;;;4.43;1.52;;;;;;;25.10;33.00;100615.22;5095036;28;20032;-77
2022/05/13 13:44:44;;;;;;;4.28;1.30;;;;;;;24.53;34.02;100621.19;5096594;28;20112;-77
2022/05/13 13:47:31;;;;;;;4.53;1.50;;;;;;;24.92;33.95;100610.13;5079068;28;20465;-78
2022/05/13 13:49:57;;;;;;;5.70;1.50;;;;;;;25.05;32.46;100612.44;5099747;28;20043;-78
2022/05/13 13:52:30;;;;;;;5.20;1.65;;;;;;;24.78;33.31;100606.19;5097419;28;20032;-77
2022/05/13 13:55:05;;;;;;;3.70;1.42;;;;;;;24.58;33.61;100607.63;5097771;28;20133;-78
2022/05/13 13:58:02;;;;;;;4.93;1.83;;;;;;;24.39;32.88;100613.66;5095031;28;20032;-77
2022/05/13 14:00:38;;;;;;;2.67;1.10;;;;;;;24.57;31.92;100605.16;5092980;28;20079;-77
2022/05/13 14:03:09;;;;;;;4.20;1.23;;;;;;;24.50;31.27;100613.53;5093968;28;20095;-76
2022/05/13 14:05:59;;;;;;;1.98;1.00;;;;;;;24.18;31.53;100618.03;5093009;28;20112;-76
2022/05/13 14:08:27;;;;;;;7.57;1.60;;;;;;;24.17;32.00;100614.50;5093821;28;20531;-76
2022/05/13 14:11:00;;;;;;;3.78;1.08;;;;;;;23.90;32.51;100605.44;5096407;28;20048;-76
2022/05/13 14:13:55;;;;;;;4.18;1.30;;;;;;;23.70;33.74;100611.44;5095429;28;20042;-77
2022/05/13 14:16:32;;;;;;;4.57;1.70;;;;;;;23.70;32.79;100611.44;5086394;28;20044;-77
2022/05/13 14:19:07;;;;;;;2.60;1.40;;;;;;;23.62;35.24;100607.25;5093405;28;20043;-76
2022/05/13 14:21:34;;;;;;;6.63;1.30;;;;;;;23.81;33.69;100607.78;5093870;28;20508;-77
2022/05/13 14:24:04;;;;;;;3.83;1.23;;;;;;;23.72;32.71;100623.69;5093952;28;20064;-77
2022/05/13 14:26:49;;;;;;;3.58;1.20;;;;;;;23.74;33.87;100610.69;5093706;28;20214;-76
2022/05/13 14:29:16;;;;;;;9.82;1.38;;;;;;;23.73;33.60;100611.75;5093796;28;20358;-75
2022/05/13 14:31:45;;;;;;;4.22;1.63;;;;;;;23.67;33.61;100612.78;5093339;28;20024;-75
2022/05/13 14:34:13;;;;;;;4.18;1.40;;;;;;;23.56;33.11;100605.50;5093490;28;20039;-76
2022/05/13 14:36:42;;;;;;;2.78;1.02;;;;;;;23.62;35.08;100609.16;5093749;28;20031;-76
2022/05/13 14:42:26;;;;;;;3.65;1.30;;;;;;;23.72;34.01;100609.28;5093779;28;20296;-76
2022/05/13 14:44:55;;;;;;;2.92;1.30;;;;;;;23.74;33.31;100609.88;5092631;28;20400;-76
2022/05/13 14:47:26;;;;;;;3.17;1.33;;;;;;;23.59;35.01;100604.19;5093622;28;20028;-75
2022/05/13 14:49:53;;;;;;;4.28;1.55;;;;;;;23.56;32.52;100606.34;5092459;28;20034;-75
2022/05/13 14:52:27;;;;;;;2.90;1.15;;;;;;;23.33;32.04;100598.38;5091607;28;20040;-76
2022/05/13 14:54:55;;;;;;;3.97;1.35;;;;;;;23.20;32.60;100602.25;5091794;28;20055;-76
2022/05/13 14:57:23;;;;;;;3.75;1.02;;;;;;;23.25;32.54;100601.50;5093127;28;20031;-76
2022/05/13 14:59:54;;;;;;;2.65;1.20;;;;;;;23.43;32.88;100606.69;5091658;28;20031;-77
2022/05/13 15:02:35;;;;;;;4.55;1.48;;;;;;;23.36;33.65;100602.50;5092789;28;20032;-76
2022/05/13 15:05:25;;;;;;;5.55;1.40;;;;;;;23.39;33.14;100605.53;5092370;28;20036;-76
2022/05/13 15:07:51;;;;;;;5.25;1.38;;;;;;;23.49;33.03;100604.88;5091970;28;20111;-76
2022/05/13 15:10:21;;;;;;;4.15;1.50;;;;;;;23.54;34.24;100603.06;5092832;28;20114;-76
2022/05/13 15:12:47;;;;;;;2.47;1.02;;;;;;;23.54;31.87;100608.50;5092610;28;20427;-75
2022/05/13 15:15:15;;;;;;;2.03;1.27;;;;;;;23.62;33.00;100611.88;5092810;28;20123;-76
2022/05/13 15:17:53;;;;;;;2.83;1.08;;;;;;;23.35;32.14;100604.41;5093643;28;20068;-76
2022/05/13 15:20:24;;;;;;;4.28;1.23;;;;;;;23.34;31.92;100594.56;5092402;28;20047;-76
2022/05/13 15:22:52;;;;;;;7.07;1.38;;;;;;;23.23;32.04;100600.94;5092491;28;20036;-75
2022/05/13 15:25:19;;;;;;;3.78;1.10;;;;;;;23.38;31.98;100608.50;5092752;28;20054;-77
2022/05/13 15:27:44;;;;;;;2.85;1.25;;;;;;;23.26;32.25;100611.31;5091587;28;20044;-76
2022/05/13 15:30:11;;;;;;;2.30;1.15;;;;;;;23.14;31.40;100607.84;5093053;28;20039;-78
2022/05/13 15:32:37;;;;;;;2.92;1.30;;;;;;;23.09;31.24;100607.78;5092450;28;20044;-76
2022/05/13 15:35:04;;;;;;;4.38;1.50;;;;;;;23.06;32.39;100600.13;5092469;28;20032;-76
2022/05/13 15:37:31;;;;;;;5.60;1.65;;;;;;;23.09;33.04;100603.19;5092244;28;20487;-76
2022/05/13 15:40:00;;;;;;;3.72;1.40;;;;;;;23.16;32.72;100605.72;5075625;28;20142;-76
2022/05/13 15:42:26;;;;;;;3.00;1.10;;;;;;;23.06;32.69;100605.56;5091970;28;20057;-76
2022/05/13 15:44:51;;;;;;;2.55;1.25;;;;;;;22.84;33.39;100587.25;5092361;28;20032;-75
2022/05/13 15:47:20;;;;;;;5.22;1.00;;;;;;;22.96;33.40;100606.22;5092173;28;20366;-77
2022/05/13 15:52:42;;;;;;;2.92;1.13;;;;;;;22.95;32.66;100612.69;5090961;28;20538;-76
2022/05/13 15:55:10;;;;;;;3.85;1.00;;;;;;;22.71;33.18;100614.72;5092373;28;20032;-77
2022/05/13 15:57:54;;;;;;;2.08;1.00;;;;;;;22.66;32.13;100599.16;5092530;28;20024;-76
2022/05/13 16:00:24;;;;;;;3.58;1.50;;;;;;;22.65;32.30;100612.97;5092376;28;20039;-76
2022/05/13 16:02:52;;;;;;;2.42;1.13;;;;;;;22.64;32.78;100609.44;5090798;28;20113;-77
2022/05/13 16:05:21;;;;;;;2.70;1.10;;;;;;;22.63;31.88;100601.53;5092801;28;20070;-76
2022/05/13 16:07:47;;;;;;;3.75;1.13;;;;;;;22.61;32.14;100600.94;5093516;28;20028;-77
2022/05/13 16:10:15;;;;;;;2.55;1.08;;;;;;;22.72;32.59;100605.50;5092242;28;20499;-77
2022/05/13 16:12:45;;;;;;;;;;;;;;;22.75;32.61;100602.28;5091317;28;20120;-76
2022/05/13 16:15:14;;;;;;;2.65;0.90;;;;;;;22.72;33.78;100608.22;5093145;28;19923;-77
2022/05/13 16:17:40;;;;;;;3.35;1.17;;;;;;;22.60;31.51;100604.72;5092507;28;20036;-77
2022/05/13 16:20:07;;;;;;;1.20;0.80;;;;;;;22.63;32.07;100610.50;5092058;28;20074;-76
2022/05/13 16:22:35;;;;;;;2.30;1.17;;;;;;;22.70;32.49;100605.75;5091408;28;20024;-76
2022/05/13 16:25:03;;;;;;;3.95;1.25;;;;;;;22.71;32.95;100603.84;5090762;28;20093;-75
2022/05/13 16:27:34;;;;;;;1.92;1.20;;;;;;;22.73;31.53;100597.09;5090385;28;20040;-76
2022/05/13 16:30:00;;;;;;;3.38;1.15;;;;;;;22.66;30.99;100598.31;5091453;28;20082;-76
2022/05/13 16:32:25;;;;;;;2.47;1.15;;;;;;;22.62;30.32;100595.25;5091668;28;20063;-78
2022/05/13 16:34:51;;;;;;;3.30;1.30;;;;;;;22.59;31.17;100595.78;5091183;28;20489;-76
2022/05/13 16:40:00;;;;;;;1.35;0.93;;;;;;;22.42;31.53;100601.16;5091736;28;20127;-75
2022/05/13 16:42:27;;;;;;;4.10;1.13;;;;;;;22.36;31.60;100599.41;5091308;28;20107;-76